createdAt,value
2022-09-24T00:00:56.553Z,98982.83
2022-09-24T00:01:59.079Z,98983.62
2022-09-24T00:03:01.676Z,98991.78
2022-09-24T00:04:04.394Z,98986.70
2022-09-24T00:05:06.931Z,98987.66
2022-09-24T00:06:10.209Z,98988.48
2022-09-24T00:07:12.674Z,98988.08
2022-09-24T00:08:15.171Z,98991.66
2022-09-24T00:09:17.636Z,98988.33
2022-09-24T00:10:21.314Z,98978.54
2022-09-24T00:11:23.782Z,98986.25
2022-09-24T00:12:26.249Z,98976.46
2022-09-24T00:13:28.975Z,98979.09
2022-09-24T00:14:31.417Z,98982.54
2022-09-24T00:15:33.911Z,98975.76
2022-09-24T00:16:36.744Z,98973.97
2022-09-24T00:17:39.284Z,98979.37
2022-09-24T00:18:41.783Z,98979.37
2022-09-24T00:19:44.249Z,98976.59
2022-09-24T00:20:47.013Z,98972.33
2022-09-24T00:21:49.515Z,98972.46
2022-09-24T00:22:51.959Z,98973.58
2022-09-24T00:23:54.511Z,98976.20
2022-09-24T00:24:56.953Z,98972.75
2022-09-24T00:25:59.398Z,98971.08
2022-09-24T00:27:02.048Z,98971.91
2022-09-24T00:28:04.528Z,98977.99
2022-09-24T00:29:06.994Z,98975.21
2022-09-24T00:30:09.756Z,98977.00
2022-09-24T00:31:12.448Z,98969.97
2022-09-24T00:32:15.294Z,98969.13
2022-09-24T00:33:17.738Z,98972.59
2022-09-24T00:34:20.234Z,98969.13
2022-09-24T00:35:22.701Z,98969.00
2022-09-24T00:36:25.470Z,98972.75
2022-09-24T00:37:27.952Z,98965.16
2022-09-24T00:38:30.417Z,98970.54
2022-09-24T00:39:32.934Z,98965.16
2022-09-24T00:40:35.599Z,98968.59
2022-09-24T00:41:38.780Z,98965.96
2022-09-24T00:42:41.271Z,98958.92
2022-09-24T00:43:43.827Z,98972.05
2022-09-24T00:44:46.303Z,98963.21
2022-09-24T00:45:48.868Z,98963.21
2022-09-24T00:46:51.797Z,98966.52
2022-09-24T00:47:54.492Z,98968.88
2022-09-24T00:48:56.934Z,98959.22
2022-09-24T00:49:59.427Z,98960.85
2022-09-24T00:51:02.200Z,98965.27
2022-09-24T00:52:04.668Z,98964.17
2022-09-24T00:53:07.107Z,98960.85
2022-09-24T00:54:09.549Z,98966.09
2022-09-24T00:55:12.188Z,98968.72
2022-09-24T00:56:14.977Z,98966.09
2022-09-24T00:57:17.437Z,98963.34
2022-09-24T00:58:19.903Z,98972.05
2022-09-24T00:59:22.373Z,98966.64
2022-09-24T01:00:25.002Z,98972.44
2022-09-24T01:01:27.702Z,98973.27
2022-09-24T01:02:30.220Z,98977.55
2022-09-24T01:03:33.184Z,98981.97
2022-09-24T01:04:35.626Z,98972.02
2022-09-24T01:05:38.136Z,98966.64
2022-09-24T01:06:41.040Z,98969.11
2022-09-24T01:07:43.506Z,98968.02
2022-09-24T01:08:45.943Z,98971.19
2022-09-24T01:09:48.391Z,98961.23
2022-09-24T01:10:51.273Z,98968.97
2022-09-24T01:11:54.093Z,98960.11
2022-09-24T01:12:56.556Z,98957.48
2022-09-24T01:13:59.035Z,98965.06
2022-09-24T01:15:01.555Z,98961.64
2022-09-24T01:16:04.142Z,98958.48
2022-09-24T01:17:06.807Z,98971.31
2022-09-24T01:18:09.462Z,98963.27
2022-09-24T01:19:11.908Z,98967.69
2022-09-24T01:20:14.780Z,98962.73
2022-09-24T01:21:17.471Z,98967.59
2022-09-24T01:22:19.917Z,98960.98
2022-09-24T01:23:22.387Z,98961.23
2022-09-24T01:24:24.829Z,98967.19
2022-09-24T01:25:27.329Z,98964.72
2022-09-24T01:26:29.956Z,98964.02
2022-09-24T01:27:32.439Z,98959.89
2022-09-24T01:28:35.038Z,98964.87
2022-09-24T01:29:37.583Z,98958.92
2022-09-24T01:30:42.251Z,98966.66
2022-09-24T01:31:44.799Z,98963.37
2022-09-24T01:32:47.529Z,98966.11
2022-09-24T01:33:49.983Z,98961.56
2022-09-24T01:34:52.458Z,98958.94
2022-09-24T01:35:54.935Z,98963.23
2022-09-24T01:36:57.553Z,98965.84
2022-09-24T01:37:59.998Z,98961.56
2022-09-24T01:39:02.776Z,98957.44
2022-09-24T01:40:05.575Z,98958.27
2022-09-24T01:41:08.802Z,98954.81
2022-09-24T01:42:11.387Z,98958.94
2022-09-24T01:43:13.839Z,98951.78
2022-09-24T01:44:16.297Z,98955.08
2022-09-24T01:45:18.773Z,98953.45
2022-09-24T01:46:21.550Z,98957.57
2022-09-24T01:47:24.226Z,98954.79
2022-09-24T01:48:26.694Z,98959.50
2022-09-24T01:49:29.215Z,98956.72
2022-09-24T01:50:31.897Z,98960.17
2022-09-24T01:51:34.371Z,98951.34
2022-09-24T01:52:36.987Z,98959.22
2022-09-24T01:53:39.466Z,98958.25
2022-09-24T01:54:41.950Z,98965.00
2022-09-24T01:55:44.431Z,98957.01
2022-09-24T01:56:47.293Z,98953.39
2022-09-24T01:57:49.820Z,98958.39
2022-09-24T01:58:52.299Z,98956.72
2022-09-24T01:59:54.746Z,98960.02
2022-09-24T02:00:57.498Z,98957.27
2022-09-24T02:02:00.074Z,98956.44
2022-09-24T02:03:02.767Z,98964.17
2022-09-24T02:04:05.304Z,98959.77
2022-09-24T02:05:08.097Z,98953.52
2022-09-24T02:06:11.374Z,98952.02
2022-09-24T02:07:13.859Z,98947.73
2022-09-24T02:08:16.359Z,98955.77
2022-09-24T02:09:18.807Z,98946.91
2022-09-24T02:10:21.468Z,98949.39
2022-09-24T02:11:23.925Z,98952.69
2022-09-24T02:12:26.394Z,98945.66
2022-09-24T02:13:28.869Z,98945.66
2022-09-24T02:14:31.347Z,98945.23
2022-09-24T02:15:33.801Z,98943.16
2022-09-24T02:16:36.520Z,98943.16
2022-09-24T02:17:39.165Z,98944.53
2022-09-24T02:18:41.644Z,98953.10
2022-09-24T02:19:44.101Z,98948.53
2022-09-24T02:20:46.898Z,98940.36
2022-09-24T02:21:49.347Z,98948.94
2022-09-24T02:22:51.803Z,98946.31
2022-09-24T02:23:54.322Z,98952.23
2022-09-24T02:24:56.778Z,98954.73
2022-09-24T02:25:59.236Z,98948.52
2022-09-24T02:27:01.907Z,98950.44
2022-09-24T02:28:04.386Z,98950.31
2022-09-24T02:29:06.917Z,98952.94
2022-09-24T02:30:09.977Z,98954.86
2022-09-24T02:31:12.786Z,98953.89
2022-09-24T02:32:15.325Z,98958.19
2022-09-24T02:33:17.777Z,98957.19
2022-09-24T02:34:20.296Z,98960.52
2022-09-24T02:35:22.791Z,98959.27
2022-09-24T02:36:25.363Z,98966.84
2022-09-24T02:37:27.827Z,98962.97
2022-09-24T02:38:30.300Z,98956.59
2022-09-24T02:39:32.794Z,98951.34
2022-09-24T02:40:35.491Z,98958.26
2022-09-24T02:41:38.426Z,98957.00
2022-09-24T02:42:41.086Z,98955.88
2022-09-24T02:43:43.808Z,98951.45
2022-09-24T02:44:46.569Z,98955.45
2022-09-24T02:45:49.017Z,98959.74
2022-09-24T02:46:51.888Z,98960.70
2022-09-24T02:47:54.398Z,98962.37
2022-09-24T02:48:56.891Z,98963.03
2022-09-24T02:49:59.404Z,98957.66
2022-09-24T02:51:02.408Z,98959.98
2022-09-24T02:52:04.869Z,98961.48
2022-09-24T02:53:07.352Z,98961.48
2022-09-24T02:54:09.838Z,98964.27
2022-09-24T02:55:12.317Z,98958.05
2022-09-24T02:56:14.871Z,98962.61
2022-09-24T02:57:17.329Z,98960.28
2022-09-24T02:58:19.903Z,98960.41
2022-09-24T02:59:22.358Z,98965.83
2022-09-24T03:00:24.970Z,98965.13
2022-09-24T03:01:28.000Z,98960.87
2022-09-24T03:02:30.926Z,98966.13
2022-09-24T03:03:33.530Z,98956.58
2022-09-24T03:04:35.979Z,98970.38
2022-09-24T03:05:38.701Z,98968.74
2022-09-24T03:06:41.248Z,98963.49
2022-09-24T03:07:43.795Z,98961.83
2022-09-24T03:08:46.267Z,98964.30
2022-09-24T03:09:48.716Z,98966.13
2022-09-24T03:10:51.346Z,98969.55
2022-09-24T03:11:53.803Z,98967.08
2022-09-24T03:12:56.544Z,98968.17
2022-09-24T03:13:59.039Z,98969.17
2022-09-24T03:15:01.529Z,98964.87
2022-09-24T03:16:04.047Z,98966.84
2022-09-24T03:17:06.637Z,98966.00
2022-09-24T03:18:09.105Z,98969.59
2022-09-24T03:19:11.590Z,98974.01
2022-09-24T03:20:15.654Z,98972.34
2022-09-24T03:21:18.333Z,98972.51
2022-09-24T03:22:21.004Z,98969.88
2022-09-24T03:23:23.523Z,98973.34
2022-09-24T03:24:26.274Z,98974.30
2022-09-24T03:25:28.761Z,98964.63
2022-09-24T03:26:31.416Z,98969.05
2022-09-24T03:27:33.865Z,98974.14
2022-09-24T03:28:36.312Z,98972.34
2022-09-24T03:29:38.793Z,98967.92
2022-09-24T03:30:41.340Z,98971.52
2022-09-24T03:31:43.960Z,98968.89
2022-09-24T03:32:46.449Z,98967.09
2022-09-24T03:33:48.914Z,98973.05
2022-09-24T03:34:51.401Z,98976.34
2022-09-24T03:35:53.884Z,98972.75
2022-09-24T03:36:56.784Z,98967.38
2022-09-24T03:37:59.257Z,98978.67
2022-09-24T03:39:01.743Z,98975.25
2022-09-24T03:40:04.766Z,98974.42
2022-09-24T03:41:07.262Z,98971.09
2022-09-24T03:42:09.868Z,98979.51
2022-09-24T03:43:12.424Z,98980.50
2022-09-24T03:44:14.933Z,98977.05
2022-09-24T03:45:17.376Z,98976.22
2022-09-24T03:46:20.241Z,98975.25
2022-09-24T03:47:22.759Z,98978.67
2022-09-24T03:48:25.539Z,98979.51
2022-09-24T03:49:28.026Z,98977.59
2022-09-24T03:50:30.580Z,98969.41
2022-09-24T03:51:33.082Z,98981.04
2022-09-24T03:52:35.612Z,98976.33
2022-09-24T03:53:38.077Z,98977.00
2022-09-24T03:54:40.603Z,98980.03
2022-09-24T03:55:43.107Z,98979.44
2022-09-24T03:56:45.690Z,98969.47
2022-09-24T03:57:48.199Z,98973.63
2022-09-24T03:58:50.646Z,98973.46
2022-09-24T03:59:53.123Z,98972.20
2022-09-24T04:00:55.694Z,98972.73
2022-09-24T04:01:58.331Z,98974.10
2022-09-24T04:03:00.961Z,98977.43
2022-09-24T04:04:03.415Z,98974.63
2022-09-24T04:05:05.879Z,98977.80
2022-09-24T04:06:08.552Z,98977.23
2022-09-24T04:07:11.018Z,98982.85
2022-09-24T04:08:13.607Z,98987.01
2022-09-24T04:09:16.071Z,98979.66
2022-09-24T04:10:19.133Z,98977.69
2022-09-24T04:11:21.587Z,98984.75
2022-09-24T04:12:24.050Z,98980.85
2022-09-24T04:13:26.549Z,98975.98
2022-09-24T04:14:29.321Z,98982.47
2022-09-24T04:15:31.914Z,98983.97
2022-09-24T04:16:34.551Z,98984.49
2022-09-24T04:17:37.120Z,98980.59
2022-09-24T04:18:39.672Z,98981.16
2022-09-24T04:19:42.216Z,98974.63
2022-09-24T04:20:44.885Z,98980.41
2022-09-24T04:21:47.327Z,98981.77
2022-09-24T04:22:49.766Z,98978.83
2022-09-24T04:23:52.262Z,98977.55
2022-09-24T04:24:54.706Z,98982.50
2022-09-24T04:25:57.173Z,98984.03
2022-09-24T04:26:59.757Z,98990.65
2022-09-24T04:28:02.559Z,98992.00
2022-09-24T04:29:05.056Z,98995.95
2022-09-24T04:30:07.709Z,98991.24
2022-09-24T04:31:10.215Z,98988.00
2022-09-24T04:32:12.703Z,98993.64
2022-09-24T04:33:15.282Z,98988.73
2022-09-24T04:34:17.768Z,98988.73
2022-09-24T04:35:20.262Z,98982.49
2022-09-24T04:36:23.137Z,98985.95
2022-09-24T04:37:25.615Z,98988.28
2022-09-24T04:38:28.063Z,98988.97
2022-09-24T04:39:30.593Z,98991.59
2022-09-24T04:40:33.185Z,98991.28
2022-09-24T04:41:35.731Z,98988.66
2022-09-24T04:42:38.172Z,98988.80
2022-09-24T04:43:40.645Z,98987.37
2022-09-24T04:44:43.113Z,98983.45
2022-09-24T04:45:45.563Z,98987.20
2022-09-24T04:46:48.306Z,98984.56
2022-09-24T04:47:50.843Z,98986.09
2022-09-24T04:48:53.318Z,98980.05
2022-09-24T04:49:55.828Z,98988.30
2022-09-24T04:50:58.599Z,98982.05
2022-09-24T04:52:01.063Z,98986.69
2022-09-24T04:53:03.525Z,98983.09
2022-09-24T04:54:06.010Z,98984.94
2022-09-24T04:55:08.513Z,98989.23
2022-09-24T04:56:11.309Z,98986.75
2022-09-24T04:57:13.801Z,98990.06
2022-09-24T04:58:16.288Z,98988.92
2022-09-24T04:59:18.751Z,98992.76
2022-09-24T05:00:21.446Z,98991.75
2022-09-24T05:01:23.991Z,98984.67
2022-09-24T05:02:27.235Z,98985.36
2022-09-24T05:03:30.064Z,98988.52
2022-09-24T05:04:32.503Z,98987.87
2022-09-24T05:05:34.998Z,98990.19
2022-09-24T05:06:37.741Z,98985.75
2022-09-24T05:07:40.211Z,98980.98
2022-09-24T05:08:42.791Z,98989.11
2022-09-24T05:09:45.449Z,98989.63
2022-09-24T05:10:48.184Z,98980.70
2022-09-24T05:11:50.702Z,98985.69
2022-09-24T05:12:53.177Z,98990.17
2022-09-24T05:13:56.160Z,98983.09
2022-09-24T05:14:58.672Z,98990.67
2022-09-24T05:16:01.411Z,98985.08
2022-09-24T05:17:04.088Z,98987.39
2022-09-24T05:18:06.546Z,98986.09
2022-09-24T05:19:09.010Z,98987.57
2022-09-24T05:20:12.465Z,98987.09
2022-09-24T05:21:15.486Z,98991.90
2022-09-24T05:22:17.951Z,98986.00
2022-09-24T05:23:20.395Z,98992.79
2022-09-24T05:24:22.845Z,98989.00
2022-09-24T05:25:25.317Z,98995.45
2022-09-24T05:26:27.925Z,99002.86
2022-09-24T05:27:30.675Z,98998.27
2022-09-24T05:28:33.174Z,98992.66
2022-09-24T05:29:35.695Z,99004.88
2022-09-24T05:30:38.234Z,98994.47
2022-09-24T05:31:41.026Z,98995.80
2022-09-24T05:32:43.538Z,98998.44
2022-09-24T05:33:46.239Z,98995.80
2022-09-24T05:34:48.676Z,98998.94
2022-09-24T05:35:51.306Z,99001.75
2022-09-24T05:36:54.149Z,99000.92
2022-09-24T05:37:56.595Z,99000.92
2022-09-24T05:38:59.095Z,98999.77
2022-09-24T05:40:03.354Z,98999.12
2022-09-24T05:41:05.904Z,99000.09
2022-09-24T05:42:08.642Z,98997.63
2022-09-24T05:43:11.431Z,99003.25
2022-09-24T05:44:13.868Z,99005.71
2022-09-24T05:45:16.341Z,98999.80
2022-09-24T05:46:19.249Z,99001.95
2022-09-24T05:47:21.777Z,99003.59
2022-09-24T05:48:24.246Z,99001.44
2022-09-24T05:49:26.728Z,99006.42
2022-09-24T05:50:29.516Z,99003.45
2022-09-24T05:51:32.161Z,99003.27
2022-09-24T05:52:34.813Z,99006.23
2022-09-24T05:53:37.318Z,99002.95
2022-09-24T05:54:39.762Z,99002.62
2022-09-24T05:55:42.203Z,99005.91
2022-09-24T05:56:44.946Z,98998.81
2022-09-24T05:57:47.512Z,99002.78
2022-09-24T05:58:49.998Z,99003.94
2022-09-24T05:59:52.483Z,99004.10
2022-09-24T06:00:55.032Z,99003.13
2022-09-24T06:01:57.566Z,99004.59
2022-09-24T06:03:00.440Z,99004.78
2022-09-24T06:04:08.410Z,98997.84
2022-09-24T06:05:07.412Z,99008.74
2022-09-24T06:06:10.790Z,99007.23
2022-09-24T06:07:13.249Z,99008.89
2022-09-24T06:08:15.752Z,99007.58
2022-09-24T06:09:18.189Z,98998.67
2022-09-24T06:10:21.182Z,99005.09
2022-09-24T06:11:23.676Z,99002.79
2022-09-24T06:12:26.202Z,98998.00
2022-09-24T06:13:28.673Z,99001.47
2022-09-24T06:14:31.147Z,99002.45
2022-09-24T06:15:33.660Z,98992.56
2022-09-24T06:16:36.383Z,99000.48
2022-09-24T06:17:39.211Z,98997.17
2022-09-24T06:18:41.862Z,98995.36
2022-09-24T06:19:44.337Z,98997.66
2022-09-24T06:20:46.893Z,98995.84
2022-09-24T06:21:49.370Z,99003.77
2022-09-24T06:22:51.841Z,98998.97
2022-09-24T06:23:54.353Z,98996.13
2022-09-24T06:24:57.117Z,98999.24
2022-09-24T06:25:59.575Z,98994.30
2022-09-24T06:27:02.252Z,98995.16
2022-09-24T06:28:04.727Z,98997.79
2022-09-24T06:29:07.373Z,98992.16
2022-09-24T06:30:10.664Z,98996.79
2022-09-24T06:31:13.236Z,98995.27
2022-09-24T06:32:16.039Z,98996.09
2022-09-24T06:33:18.503Z,98997.79
2022-09-24T06:34:21.305Z,98994.30
2022-09-24T06:35:23.762Z,99003.70
2022-09-24T06:36:26.309Z,99002.22
2022-09-24T06:37:28.828Z,98996.56
2022-09-24T06:38:31.307Z,98996.73
2022-09-24T06:39:33.846Z,98997.91
2022-09-24T06:40:37.642Z,99001.19
2022-09-24T06:41:40.761Z,99005.49
2022-09-24T06:42:43.327Z,99011.45
2022-09-24T06:43:46.114Z,98999.20
2022-09-24T06:44:48.618Z,99001.01
2022-09-24T06:45:51.089Z,99004.13
2022-09-24T06:46:53.790Z,98999.00
2022-09-24T06:47:56.360Z,99007.77
2022-09-24T06:48:58.881Z,99007.28
2022-09-24T06:50:01.397Z,99006.45
2022-09-24T06:51:03.846Z,99006.45
2022-09-24T06:52:06.376Z,99006.45
2022-09-24T06:53:08.845Z,99003.81
2022-09-24T06:54:11.296Z,99011.43
2022-09-24T06:55:13.894Z,99010.76
2022-09-24T06:56:17.111Z,99010.41
2022-09-24T06:57:19.613Z,99016.02
2022-09-24T06:58:22.082Z,99012.55
2022-09-24T06:59:24.551Z,99015.52
2022-09-24T07:00:27.310Z,99018.16
2022-09-24T07:01:29.895Z,99020.81
2022-09-24T07:02:32.654Z,99012.05
2022-09-24T07:03:35.480Z,99025.77
2022-09-24T07:04:38.023Z,99011.72
2022-09-24T07:05:43.526Z,99013.53
2022-09-24T07:06:45.051Z,99013.38
2022-09-24T07:07:47.537Z,99014.20
2022-09-24T07:08:50.010Z,99020.83
2022-09-24T07:09:52.521Z,99017.52
2022-09-24T07:10:55.056Z,99015.72
2022-09-24T07:11:57.512Z,99026.30
2022-09-24T07:12:59.989Z,99018.53
2022-09-24T07:14:02.474Z,99008.11
2022-09-24T07:15:04.944Z,99004.61
2022-09-24T07:16:08.224Z,99012.88
2022-09-24T07:17:10.865Z,99001.94
2022-09-24T07:18:13.352Z,99009.17
2022-09-24T07:19:15.923Z,99007.48
2022-09-24T07:20:18.777Z,99013.80
2022-09-24T07:21:21.256Z,99008.31
2022-09-24T07:22:23.846Z,99008.66
2022-09-24T07:23:26.602Z,99010.80
2022-09-24T07:24:29.088Z,99010.45
2022-09-24T07:25:32.350Z,99010.41
2022-09-24T07:26:35.153Z,99006.55
2022-09-24T07:27:37.636Z,99006.38
2022-09-24T07:28:40.123Z,99011.67
2022-09-24T07:29:42.593Z,99006.70
2022-09-24T07:30:45.470Z,99005.87
2022-09-24T07:31:48.177Z,99005.98
2022-09-24T07:32:50.829Z,99005.63
2022-09-24T07:33:53.277Z,99008.58
2022-09-24T07:34:55.761Z,99009.36
2022-09-24T07:35:58.508Z,99007.10
2022-09-24T07:37:01.194Z,99006.30
2022-09-24T07:38:03.851Z,99006.77
2022-09-24T07:39:06.442Z,99012.28
2022-09-24T07:40:09.295Z,99009.77
2022-09-24T07:41:11.888Z,99017.98
2022-09-24T07:42:14.585Z,99015.84
2022-09-24T07:43:17.064Z,99017.23
2022-09-24T07:44:19.610Z,99018.19
2022-09-24T07:45:22.588Z,99011.03
2022-09-24T07:46:25.290Z,99016.70
2022-09-24T07:47:27.896Z,99016.06
2022-09-24T07:48:30.485Z,99013.42
2022-09-24T07:49:32.978Z,99017.36
2022-09-24T07:50:35.529Z,99010.86
2022-09-24T07:51:38.011Z,99014.64
2022-09-24T07:52:40.482Z,99012.54
2022-09-24T07:53:43.288Z,99001.77
2022-09-24T07:54:45.763Z,99010.25
2022-09-24T07:55:48.277Z,99011.55
2022-09-24T07:56:50.950Z,99009.35
2022-09-24T07:57:53.435Z,99010.44
2022-09-24T07:58:55.974Z,99013.45
2022-09-24T07:59:58.420Z,99007.08
2022-09-24T08:01:01.128Z,99005.80
2022-09-24T08:02:03.660Z,99003.88
2022-09-24T08:03:06.448Z,99003.69
2022-09-24T08:04:09.050Z,99005.63
2022-09-24T08:05:11.712Z,98999.12
2022-09-24T08:06:15.914Z,98999.49
2022-09-24T08:07:18.404Z,99004.68
2022-09-24T08:08:20.920Z,99004.05
2022-09-24T08:09:23.409Z,98998.84
2022-09-24T08:10:26.066Z,98991.98
2022-09-24T08:11:28.517Z,98995.83
2022-09-24T08:12:31.012Z,99002.59
2022-09-24T08:13:33.492Z,98997.91
2022-09-24T08:14:36.386Z,99002.87
2022-09-24T08:15:38.947Z,98997.19
2022-09-24T08:16:41.715Z,98991.95
2022-09-24T08:17:44.775Z,98991.86
2022-09-24T08:18:47.268Z,98991.38
2022-09-24T08:19:49.722Z,98993.92
2022-09-24T08:20:52.409Z,98995.74
2022-09-24T08:21:54.968Z,98999.00
2022-09-24T08:22:57.497Z,98996.22
2022-09-24T08:24:00.031Z,98999.67
2022-09-24T08:25:02.505Z,99002.09
2022-09-24T08:26:05.071Z,98994.84
2022-09-24T08:27:07.558Z,98997.72
2022-09-24T08:28:10.051Z,99001.03
2022-09-24T08:29:12.558Z,98995.33
2022-09-24T08:30:15.786Z,98995.37
2022-09-24T08:31:18.425Z,99000.70
2022-09-24T08:32:21.117Z,99000.75
2022-09-24T08:33:23.602Z,99000.83
2022-09-24T08:34:26.093Z,99008.47
2022-09-24T08:35:28.545Z,99005.49
2022-09-24T08:36:31.209Z,99008.19
2022-09-24T08:37:33.649Z,99005.10
2022-09-24T08:38:36.148Z,99005.92
2022-09-24T08:39:38.751Z,99005.58
2022-09-24T08:40:41.412Z,99006.66
2022-09-24T08:41:44.248Z,98999.86
2022-09-24T08:42:46.695Z,99005.48
2022-09-24T08:43:49.556Z,99001.26
2022-09-24T08:44:52.233Z,98992.12
2022-09-24T08:45:54.911Z,98993.83
2022-09-24T08:46:57.712Z,98986.95
2022-09-24T08:48:00.330Z,98995.03
2022-09-24T08:49:03.170Z,98988.48
2022-09-24T08:50:05.874Z,98986.23
2022-09-24T08:51:08.339Z,98985.41
2022-09-24T08:52:10.990Z,98991.34
2022-09-24T08:53:13.437Z,98995.06
2022-09-24T08:54:15.909Z,98994.86
2022-09-24T08:55:18.609Z,98990.09
2022-09-24T08:56:21.250Z,99003.67
2022-09-24T08:57:23.779Z,98990.94
2022-09-24T08:58:26.246Z,98991.93
2022-09-24T08:59:28.690Z,98997.24
2022-09-24T09:00:31.605Z,98993.75
2022-09-24T09:01:34.146Z,98993.13
2022-09-24T09:02:36.841Z,98992.30
2022-09-24T09:03:39.653Z,98997.27
2022-09-24T09:04:42.150Z,98986.78
2022-09-24T09:05:49.118Z,98994.65
2022-09-24T09:06:49.278Z,98986.23
2022-09-24T09:07:51.758Z,98984.17
2022-09-24T09:09:06.961Z,98991.35
2022-09-24T09:09:58.694Z,98991.16
2022-09-24T09:11:01.439Z,98995.27
2022-09-24T09:12:03.883Z,98992.17
2022-09-24T09:13:06.411Z,98990.53
2022-09-24T09:14:09.538Z,98989.09
2022-09-24T09:15:12.036Z,98989.30
2022-09-24T09:16:15.804Z,98980.48
2022-09-24T09:17:18.308Z,98984.19
2022-09-24T09:18:20.750Z,98984.39
2022-09-24T09:19:23.461Z,98983.59
2022-09-24T09:20:26.410Z,98985.42
2022-09-24T09:21:28.989Z,98985.00
2022-09-24T09:22:31.646Z,98978.86
2022-09-24T09:23:34.402Z,98989.94
2022-09-24T09:24:36.880Z,98986.64
2022-09-24T09:25:39.319Z,98974.13
2022-09-24T09:26:42.105Z,98980.08
2022-09-24T09:27:44.774Z,98979.86
2022-09-24T09:28:47.221Z,98980.47
2022-09-24T09:29:49.709Z,98977.83
2022-09-24T09:30:52.562Z,98981.92
2022-09-24T09:31:56.473Z,98977.22
2022-09-24T09:32:59.963Z,98979.66
2022-09-24T09:34:02.480Z,98977.63
2022-09-24T09:35:05.274Z,98985.00
2022-09-24T09:36:08.268Z,98980.30
2022-09-24T09:37:10.865Z,98977.20
2022-09-24T09:38:13.314Z,98980.91
2022-09-24T09:39:15.757Z,98985.01
2022-09-24T09:40:18.543Z,98977.17
2022-09-24T09:42:32.917Z,98980.88
2022-09-24T09:43:35.399Z,98990.07
2022-09-24T09:44:37.846Z,98980.80
2022-09-24T09:45:40.440Z,98981.58
2022-09-24T09:46:43.263Z,98987.14
2022-09-24T09:47:45.836Z,98979.33
2022-09-24T09:48:48.283Z,98980.50
2022-09-24T09:49:50.762Z,98975.76
2022-09-24T09:50:53.251Z,98974.94
2022-09-24T09:51:55.718Z,98976.19
2022-09-24T09:52:58.222Z,98977.84
2022-09-24T09:54:00.687Z,98976.06
2022-09-24T09:55:03.151Z,98980.39
2022-09-24T09:56:05.736Z,98980.16
2022-09-24T09:57:08.247Z,98972.39
2022-09-24T09:58:10.928Z,98978.55
2022-09-24T09:59:13.402Z,98985.91
2022-09-24T10:00:16.966Z,98979.33
2022-09-24T10:01:19.465Z,98978.09
2022-09-24T10:02:21.982Z,98978.31
2022-09-24T10:03:25.103Z,98968.42
2022-09-24T10:04:27.795Z,98979.06
2022-09-24T10:05:30.258Z,98972.84
2022-09-24T10:06:33.023Z,98975.47
2022-09-24T10:07:35.474Z,98975.59
2022-09-24T10:08:38.033Z,98971.41
2022-09-24T10:09:40.548Z,98977.06
2022-09-24T10:10:43.408Z,98976.97
2022-09-24T10:11:45.922Z,98973.44
2022-09-24T10:12:48.417Z,98976.28
2022-09-24T10:13:50.948Z,98968.27
2022-09-24T10:14:53.436Z,98973.29
2022-09-24T10:15:57.043Z,98972.03
2022-09-24T10:16:59.768Z,98977.95
2022-09-24T10:18:02.324Z,98967.01
2022-09-24T10:19:04.835Z,98971.65
2022-09-24T10:20:07.712Z,98961.93
2022-09-24T10:21:10.186Z,98964.69
2022-09-24T10:22:12.688Z,98969.91
2022-09-24T10:23:15.154Z,98964.45
2022-09-24T10:24:18.005Z,98966.61
2022-09-24T10:25:20.723Z,98975.52
2022-09-24T10:26:23.373Z,98957.52
2022-09-24T10:27:26.107Z,98966.33
2022-09-24T10:28:28.635Z,98970.20
2022-09-24T10:29:31.214Z,98960.74
2022-09-24T10:30:33.811Z,98957.35
2022-09-24T10:31:36.356Z,98958.44
2022-09-24T10:32:38.916Z,98948.03
2022-09-24T10:33:41.410Z,98947.88
2022-09-24T10:34:43.894Z,98956.34
2022-09-24T10:35:46.441Z,98945.30
2022-09-24T10:36:49.240Z,98942.89
2022-09-24T10:37:51.694Z,98944.50
2022-09-24T10:38:54.148Z,98939.51
2022-09-24T10:39:56.626Z,98942.41
2022-09-24T10:40:59.374Z,98941.80
2022-09-24T10:42:01.934Z,98941.59
2022-09-24T10:43:04.427Z,98945.75
2022-09-24T10:44:06.887Z,98945.97
2022-09-24T10:45:09.366Z,98953.52
2022-09-24T10:46:13.034Z,98950.06
2022-09-24T10:47:15.934Z,98944.64
2022-09-24T10:48:18.402Z,98951.34
2022-09-24T10:49:20.852Z,98954.47
2022-09-24T10:50:23.352Z,98957.95
2022-09-24T10:51:29.159Z,98964.86
2022-09-24T10:52:30.226Z,98966.09
2022-09-24T10:53:32.691Z,98969.02
2022-09-24T10:54:35.164Z,98970.44
2022-09-24T10:55:37.633Z,98964.89
2022-09-24T10:56:45.393Z,98973.63
2022-09-24T10:57:44.661Z,98967.18
2022-09-24T10:58:47.110Z,98972.02
2022-09-24T10:59:49.560Z,98970.09
2022-09-24T11:00:52.196Z,98980.65
2022-09-24T11:01:54.682Z,98964.92
2022-09-24T11:02:57.192Z,98975.59
2022-09-24T11:03:59.796Z,98978.30
2022-09-24T11:05:02.285Z,98983.38
2022-09-24T11:06:04.902Z,98986.22
2022-09-24T11:07:07.373Z,98981.03
2022-09-24T11:08:09.883Z,98979.59
2022-09-24T11:09:12.436Z,98979.78
2022-09-24T11:10:16.237Z,98980.34
2022-09-24T11:11:18.715Z,98980.02
2022-09-24T11:12:21.180Z,98983.30
2022-09-24T11:13:23.692Z,98977.98
2022-09-24T11:14:26.148Z,98971.93
2022-09-24T11:15:28.600Z,98978.59
2022-09-24T11:16:31.352Z,98977.67
2022-09-24T11:17:33.891Z,98980.33
2022-09-24T11:18:36.365Z,98981.31
2022-09-24T11:19:38.812Z,98980.69
2022-09-24T11:20:41.583Z,98986.98
2022-09-24T11:21:44.107Z,98988.17
2022-09-24T11:22:46.586Z,98980.03
2022-09-24T11:23:49.064Z,98976.91
2022-09-24T11:24:51.513Z,98983.17
2022-09-24T11:25:53.963Z,98986.02
2022-09-24T11:26:56.762Z,98976.95
2022-09-24T11:27:59.213Z,98983.44
2022-09-24T11:29:01.667Z,98979.14
2022-09-24T11:30:04.448Z,98987.75
2022-09-24T11:31:06.995Z,98981.25
2022-09-24T11:32:09.551Z,98976.95
2022-09-24T11:33:12.031Z,98974.77
2022-09-24T11:34:14.477Z,98976.75
2022-09-24T11:35:16.929Z,98975.31
2022-09-24T11:36:19.790Z,98970.56
2022-09-24T11:37:22.322Z,98981.09
2022-09-24T11:38:24.794Z,98975.33
2022-09-24T11:39:27.272Z,98974.28
2022-09-24T11:40:29.918Z,98971.95
2022-09-24T11:41:32.808Z,98974.44
2022-09-24T11:42:35.566Z,98972.42
2022-09-24T11:43:38.055Z,98975.38
2022-09-24T11:44:40.494Z,98971.06
2022-09-24T11:45:43.012Z,98975.70
2022-09-24T11:46:45.608Z,98982.78
2022-09-24T11:47:48.199Z,98970.59
2022-09-24T11:48:50.645Z,98979.45
2022-09-24T11:49:53.126Z,98973.79
2022-09-24T11:50:55.897Z,98979.53
2022-09-24T11:51:58.366Z,98974.00
2022-09-24T11:53:00.842Z,98968.91
2022-09-24T11:54:03.313Z,98974.64
2022-09-24T11:55:05.768Z,98976.48
2022-09-24T11:56:13.046Z,98972.56
2022-09-24T11:57:13.082Z,98972.97
2022-09-24T11:58:15.571Z,98979.52
2022-09-24T11:59:18.043Z,98970.64
2022-09-24T12:00:21.219Z,98980.83
2022-09-24T12:01:24.231Z,98971.81
2022-09-24T12:02:28.121Z,98970.03
2022-09-24T12:03:30.910Z,98967.91
2022-09-24T12:04:33.767Z,98971.10
2022-09-24T12:05:36.227Z,98964.34
2022-09-24T12:06:39.021Z,98968.02
2022-09-24T12:07:41.493Z,98977.56
2022-09-24T12:08:44.081Z,98966.89
2022-09-24T12:09:46.558Z,98961.70
2022-09-24T12:10:49.432Z,98969.45
2022-09-24T12:11:51.937Z,98971.23
2022-09-24T12:12:54.386Z,98971.16
2022-09-24T12:13:56.874Z,98964.95
2022-09-24T12:14:59.319Z,98961.98
2022-09-24T12:16:02.034Z,98966.41
2022-09-24T12:17:04.616Z,98971.45